createdAt,value
2018-05-01T19:45:18.413Z,20.1
2018-05-01T19:46:08.472Z,20.1
2018-05-01T19:46:58.520Z,20
2018-05-01T19:47:48.325Z,19.9
2018-05-01T19:48:38.674Z,20.1
2018-05-01T19:49:28.447Z,20.1
2018-05-01T19:50:18.802Z,20
2018-05-01T19:51:08.425Z,19.9
2018-05-01T19:51:58.474Z,19.9
2018-05-01T19:52:48.523Z,19.8
2018-05-01T19:53:38.600Z,19.8
2018-05-01T19:54:28.656Z,19.7
2018-05-01T19:55:18.714Z,19.6
2018-05-01T19:56:08.704Z,19.6
2018-05-01T19:56:58.486Z,19.6
2018-05-01T19:57:49.119Z,19.6
2018-05-01T19:58:39.504Z,19.6
2018-05-01T19:59:29.505Z,19.7
2018-05-01T20:00:19.328Z,19.7
2018-05-01T20:01:09.648Z,19.6
2018-05-01T20:01:59.140Z,19.7
2018-05-01T20:02:49.494Z,19.6
2018-05-01T20:03:39.090Z,19.6
2018-05-01T20:04:29.062Z,19.6
2018-05-01T20:05:19.499Z,19.6
2018-05-01T20:06:09.264Z,19.6
2018-05-01T20:06:59.357Z,19.4
2018-05-01T20:07:49.879Z,19.3
2018-05-01T20:08:40.221Z,19.3
2018-05-01T20:09:30.014Z,19.2
2018-05-01T20:10:20.085Z,19.1
2018-05-01T20:11:10.417Z,19.2
2018-05-01T20:12:00.506Z,19.2
2018-05-01T20:12:50.254Z,19.2
2018-05-01T20:13:40.339Z,19.2
2018-05-01T20:14:30.715Z,19.3
2018-05-01T20:15:20.495Z,19.3
2018-05-01T20:16:10.834Z,19.2
2018-05-01T20:17:00.912Z,19.2
2018-05-01T20:17:50.940Z,19.2
2018-05-01T20:18:40.755Z,19.1
2018-05-01T20:19:31.123Z,19.3
2018-05-01T20:20:21.188Z,19.2
2018-05-01T20:21:10.665Z,19.2
2018-05-01T20:22:01.336Z,19.2
2018-05-01T20:22:51.115Z,19.2
2018-05-01T20:23:41.131Z,19.2
2018-05-01T20:24:30.959Z,19.3
2018-05-01T20:25:20.985Z,19.3
2018-05-01T20:26:11.632Z,19.3
2018-05-01T20:27:01.088Z,19.3
2018-05-01T20:27:51.149Z,19.3
2018-05-01T20:28:41.829Z,19.3
2018-05-01T20:29:30.797Z,19.3
2018-05-01T20:30:36.779Z,19.3
2018-05-01T20:31:11.792Z,19.3
2018-05-01T20:32:02.579Z,19.3
2018-05-01T20:32:52.330Z,19.3
2018-05-01T20:33:42.759Z,19.2
2018-05-01T20:34:32.141Z,19.1
2018-05-01T20:35:22.829Z,19
2018-05-01T20:36:12.838Z,19
2018-05-01T20:37:02.914Z,18.9
2018-05-01T20:37:53.010Z,18.9
2018-05-01T20:38:43.089Z,18.8
2018-05-01T20:39:33.127Z,18.8
2018-05-01T20:43:43.170Z,18.8
2018-05-01T20:46:13.640Z,18.6
2018-05-01T20:47:03.724Z,18.6
2018-05-01T20:47:53.164Z,18.6
2018-05-01T20:48:43.858Z,18.6
2018-05-01T20:49:33.588Z,18.6
2018-05-01T20:50:23.974Z,18.6
2018-05-01T20:51:13.997Z,18.6
2018-05-01T20:52:04.106Z,18.5
2018-05-01T20:52:53.680Z,18.5
2018-05-01T20:53:43.738Z,18.5
2018-05-01T20:54:33.780Z,18.5
2018-05-01T20:55:23.845Z,18.4
2018-05-01T20:56:13.339Z,18.4
2018-05-01T20:57:04.478Z,18.3
2018-05-01T20:57:54.329Z,18.3
2018-05-01T20:58:44.617Z,18.3
2018-05-01T20:59:34.370Z,18.3
2018-05-01T21:00:24.743Z,18.3
2018-05-01T21:01:14.785Z,18.3
2018-05-01T21:02:04.844Z,18.3
2018-05-01T21:02:54.644Z,18.3
2018-05-01T21:03:44.697Z,18.3
2018-05-01T21:04:35.087Z,18.3
2018-05-01T21:05:25.158Z,18.2
2018-05-01T21:06:15.219Z,18.1
2018-05-01T21:07:05.206Z,18.1
2018-05-01T21:07:55.287Z,18.2
2018-05-01T21:08:45.392Z,18.1
2018-05-01T21:09:35.439Z,18.1
2018-05-01T21:10:25.470Z,18.1
2018-05-01T21:11:15.573Z,18.1
2018-05-01T21:12:05.368Z,18.1
2018-05-01T21:12:55.113Z,18.1
2018-05-01T21:13:45.767Z,17.9
2018-05-01T21:14:35.841Z,17.9
2018-05-01T21:15:25.995Z,17.9
2018-05-01T21:16:15.947Z,17.9
2018-05-01T21:17:05.728Z,17.8
2018-05-01T21:17:56.109Z,17.8
2018-05-01T21:18:46.137Z,17.8
2018-05-01T21:19:35.895Z,17.8
2018-05-01T21:20:25.994Z,17.8
2018-05-01T21:21:16.086Z,17.8
2018-05-01T21:22:06.782Z,17.6
2018-05-01T21:22:56.187Z,17.7
2018-05-01T21:23:46.528Z,17.6
2018-05-01T21:24:36.326Z,17.6
2018-05-01T21:25:26.689Z,17.6
2018-05-01T21:26:16.451Z,17.6
2018-05-01T21:27:06.821Z,17.6
2018-05-01T21:27:56.875Z,17.6
2018-05-01T21:28:46.568Z,17.6
2018-05-01T21:29:36.958Z,17.6
2018-05-01T21:30:27.020Z,17.6
2018-05-01T21:31:17.097Z,17.7
2018-05-01T21:32:05.924Z,17.6
2018-05-01T21:32:55.954Z,17.6
2018-05-01T21:33:46.293Z,17.7
2018-05-01T21:34:36.840Z,17.7
2018-05-01T21:35:26.652Z,17.7
2018-05-01T21:36:17.256Z,17.7
2018-05-01T21:37:07.551Z,17.7
2018-05-01T21:37:57.335Z,17.6
2018-05-01T21:38:47.395Z,17.7
2018-05-01T21:39:37.751Z,17.7
2018-05-01T21:40:27.562Z,17.6
2018-05-01T21:41:17.571Z,17.5
2018-05-01T21:42:07.921Z,17.5
2018-05-01T21:42:58.342Z,17.6
2018-05-01T21:43:47.825Z,17.6
2018-05-01T21:44:38.228Z,17.6
2018-05-01T21:45:27.917Z,17.6
2018-05-01T21:46:18.300Z,17.6
2018-05-01T21:47:08.350Z,17.6
2018-05-01T21:47:58.390Z,17.6
2018-05-01T21:48:48.443Z,17.5
2018-05-01T21:49:38.198Z,17.5
2018-05-01T21:50:28.285Z,17.6
2018-05-01T21:51:18.508Z,17.6
2018-05-01T21:52:08.456Z,17.6
2018-05-01T21:52:58.248Z,17.5
2018-05-01T21:53:48.861Z,17.6
2018-05-01T21:54:38.905Z,17.6
2018-05-01T21:55:28.083Z,17.6
2018-05-01T21:56:19.062Z,17.6
2018-05-01T21:57:08.530Z,17.5
2018-05-01T21:57:59.116Z,17.4
2018-05-01T21:58:49.193Z,17.4
2018-05-01T21:59:39.326Z,17.4
2018-05-01T22:00:29.292Z,17.4
2018-05-01T22:01:19.128Z,17.5
2018-05-01T22:02:09.133Z,17.6
2018-05-01T22:02:59.505Z,17.6
2018-05-01T22:03:49.564Z,17.4
2018-05-01T22:04:38.786Z,17.4
2018-05-01T22:05:29.683Z,17.4
2018-05-01T22:06:19.482Z,17.4
2018-05-01T22:07:09.802Z,17.4
2018-05-01T22:07:59.601Z,17.4
2018-05-01T22:08:49.955Z,17.4
2018-05-01T22:09:40.002Z,17.4
2018-05-01T22:10:29.821Z,17.4
2018-05-01T22:11:20.121Z,17.4
2018-05-01T22:12:10.285Z,17.4
2018-05-01T22:12:59.697Z,17.4
2018-05-01T22:13:50.049Z,17.5
2018-05-01T22:14:40.403Z,17.5
2018-05-01T22:15:30.193Z,17.5
2018-05-01T22:16:20.532Z,17.4
2018-05-01T22:17:09.753Z,17.4
2018-05-01T22:18:00.639Z,17.3
2018-05-01T22:18:50.419Z,17.3
2018-05-01T22:19:40.212Z,17.3
2018-05-01T22:20:30.850Z,17.3
2018-05-01T22:21:20.650Z,17.3
2018-05-01T22:22:10.700Z,17.3
2018-05-01T22:23:00.461Z,17.3
2018-05-01T22:23:51.111Z,17.2
2018-05-01T22:24:40.883Z,17.3
2018-05-01T22:25:30.679Z,17.3
2018-05-01T22:26:21.302Z,17.3
2018-05-01T22:27:11.370Z,17.2
2018-05-01T22:28:01.449Z,17.2
2018-05-01T22:28:51.923Z,17.2
2018-05-01T22:29:41.551Z,17.2
2018-05-01T22:30:31.834Z,17.1
2018-05-01T22:31:21.707Z,17.1
2018-05-01T22:32:11.755Z,17.1
2018-05-01T22:33:01.813Z,17.1
2018-05-01T22:34:41.678Z,17.1
2018-05-01T22:35:32.019Z,17.1
2018-05-01T22:37:12.147Z,16.9
2018-05-01T22:38:02.183Z,16.8
2018-05-01T22:38:51.709Z,16.8
2018-05-01T22:39:42.335Z,16.8
2018-05-01T22:40:32.540Z,16.8
2018-05-01T22:41:22.449Z,16.8
2018-05-01T22:42:12.524Z,16.9
2018-05-01T22:43:02.321Z,16.8
2018-05-01T22:43:52.369Z,16.8
2018-05-01T22:44:42.430Z,16.7
2018-05-01T22:45:32.499Z,16.7
2018-05-01T22:46:22.279Z,16.8
2018-05-01T22:47:12.622Z,16.8
2018-05-01T22:48:02.697Z,16.8
2018-05-01T22:48:53.051Z,16.8
2018-05-01T22:49:43.106Z,16.8
2018-05-01T22:50:33.166Z,16.9
2018-05-01T22:52:13.293Z,16.9
2018-05-01T22:53:03.373Z,16.9
2018-05-01T22:53:52.856Z,16.9
2018-05-01T22:54:43.480Z,16.9
2018-05-01T22:55:33.604Z,16.8
2018-05-01T22:56:23.640Z,16.8
2018-05-01T22:57:13.413Z,16.8
2018-05-01T22:58:03.491Z,16.8
2018-05-01T22:58:53.517Z,16.7
2018-05-01T22:59:43.894Z,16.8
2018-05-01T23:00:33.370Z,16.8
2018-05-01T23:01:24.011Z,16.8
2018-05-01T23:02:13.794Z,16.7
2018-05-01T23:03:04.180Z,16.6
2018-05-01T23:03:54.214Z,16.5
2018-05-01T23:04:44.351Z,16.5
2018-05-01T23:05:33.770Z,16.6
2018-05-01T23:06:24.148Z,16.5
2018-05-01T23:07:14.509Z,16.4
2018-05-01T23:08:04.535Z,16.3
2018-05-01T23:08:54.568Z,16.3
2018-05-01T23:09:44.658Z,16.2
2018-05-01T23:10:34.137Z,16.1
2018-05-01T23:11:24.501Z,16.1
2018-05-01T23:12:14.864Z,16.1
2018-05-01T23:13:04.659Z,15.9
2018-05-01T23:13:55.015Z,15.9
2018-05-01T23:14:45.103Z,15.8
2018-05-01T23:15:35.118Z,15.6
2018-05-01T23:16:24.932Z,15.4
2018-05-01T23:17:14.965Z,15.3
2018-05-01T23:18:05.010Z,15.1
2018-05-01T23:18:54.802Z,15
2018-05-01T23:19:44.584Z,14.9
2018-05-01T23:20:35.489Z,14.9
2018-05-01T23:21:25.282Z,14.9
2018-05-01T23:22:15.617Z,14.8
2018-05-01T23:23:05.117Z,14.8
2018-05-01T23:23:55.754Z,14.8
2018-05-01T23:24:45.808Z,14.7
2018-05-01T23:25:35.958Z,14.6
2018-05-01T23:26:25.971Z,14.6
2018-05-01T23:27:15.996Z,14.6
2018-05-01T23:28:05.516Z,14.6
2018-05-01T23:28:56.110Z,14.6
2018-05-01T23:29:46.281Z,14.4
2018-05-01T23:30:35.973Z,14.4
2018-05-01T23:31:26.053Z,14.4
2018-05-01T23:32:16.391Z,14.5
2018-05-01T23:33:06.291Z,14.4
2018-05-01T23:33:56.525Z,14.4
2018-05-01T23:34:46.632Z,14.6
2018-05-01T23:35:36.627Z,14.6
2018-05-01T23:36:26.156Z,14.7
2018-05-01T23:37:16.495Z,14.9
2018-05-01T23:38:06.587Z,14.9
2018-05-01T23:38:56.659Z,15
2018-05-01T23:39:46.707Z,15
2018-05-01T23:40:37.074Z,15.3
2018-05-01T23:41:26.841Z,15.5
2018-05-01T23:42:16.886Z,15.7
2018-05-01T23:43:06.973Z,15.8
2018-05-01T23:43:56.736Z,15.9
2018-05-01T23:44:46.704Z,15.8
2018-05-01T23:45:37.455Z,15.8
2018-05-01T23:46:27.501Z,15.7
2018-05-01T23:47:17.612Z,15.7
2018-05-01T23:48:07.077Z,15.6
2018-05-01T23:48:57.714Z,15.6
2018-05-01T23:49:47.500Z,15.6
2018-05-01T23:50:37.524Z,15.6
2018-05-01T23:51:27.427Z,15.6
2018-05-01T23:52:17.975Z,15.6
2018-05-01T23:53:07.712Z,15.6
2018-05-01T23:53:58.085Z,15.6
2018-05-01T23:54:48.245Z,15.5
2018-05-01T23:55:38.219Z,15.5
2018-05-01T23:56:28.280Z,15.6
2018-05-01T23:57:18.110Z,15.5
2018-05-01T23:58:08.227Z,15.6
2018-05-01T23:58:58.197Z,15.8
2018-05-01T23:59:48.588Z,15.7
